createdAt,value
2024-03-02T00:00:28.498Z,85.47
2024-03-02T00:03:16.980Z,86.78
2024-03-02T00:05:49.849Z,88.46
2024-03-02T00:08:26.028Z,88.82
2024-03-02T00:10:59.029Z,88.22
2024-03-02T00:13:28.544Z,87.74
2024-03-02T00:15:59.906Z,87.55
2024-03-02T00:18:36.760Z,87.98
2024-03-02T00:21:07.673Z,86.50
2024-03-02T00:23:36.365Z,86.10
2024-03-02T00:26:05.071Z,87.15
2024-03-02T00:28:36.388Z,86.92
2024-03-02T00:31:08.911Z,87.10
2024-03-02T00:33:41.680Z,88.37
2024-03-02T00:36:11.854Z,89.63
2024-03-02T00:38:51.583Z,89.85
2024-03-02T00:41:31.688Z,90.57
2024-03-02T00:44:09.511Z,89.93
2024-03-02T00:46:42.167Z,91.30
2024-03-02T00:49:22.096Z,91.88
2024-03-02T00:51:52.802Z,92.15
2024-03-02T00:54:27.058Z,90.94
2024-03-02T00:56:57.337Z,89.88
2024-03-02T00:59:26.960Z,90.34
2024-03-02T01:01:55.384Z,90.71
2024-03-02T01:04:23.886Z,91.62
2024-03-02T01:06:52.408Z,92.18
2024-03-02T01:09:20.681Z,92.80
2024-03-02T01:11:49.226Z,92.88
2024-03-02T01:14:17.403Z,93.85
2024-03-02T01:16:45.806Z,94.38
2024-03-02T01:19:14.185Z,94.47
2024-03-02T01:21:42.525Z,95.23
2024-03-02T01:24:10.954Z,95.37
2024-03-02T01:26:39.157Z,95.08
2024-03-02T01:29:07.783Z,95.50
2024-03-02T01:31:36.857Z,96.19
2024-03-02T01:34:05.084Z,96.75
2024-03-02T01:36:33.232Z,97.02
2024-03-02T01:39:02.123Z,96.91
2024-03-02T01:41:30.366Z,96.96
2024-03-02T01:43:58.560Z,97.51
2024-03-02T01:46:26.853Z,97.74
2024-03-02T01:48:55.044Z,98.05
2024-03-02T01:51:23.243Z,98.35
2024-03-02T01:53:51.682Z,98.47
2024-03-02T01:56:20.030Z,99.06
2024-03-02T01:58:48.245Z,99.08
2024-03-02T02:01:18.067Z,99.08
2024-03-02T02:03:46.849Z,99.29
2024-03-02T02:06:15.065Z,99.79
2024-03-02T02:08:43.262Z,100.00
2024-03-02T02:11:11.490Z,100.00
2024-03-02T02:13:39.640Z,100.00
2024-03-02T02:16:10.973Z,100.00
2024-03-02T02:18:39.276Z,100.00
2024-03-02T02:21:07.929Z,100.00
2024-03-02T02:23:36.743Z,100.00
2024-03-02T02:26:05.032Z,100.00
2024-03-02T02:28:34.605Z,100.00
2024-03-02T02:31:03.915Z,100.00
2024-03-02T02:33:32.229Z,100.00
2024-03-02T02:36:00.620Z,100.00
2024-03-02T02:38:28.875Z,100.00
2024-03-02T02:40:57.066Z,100.00
2024-03-02T02:43:25.198Z,100.00
2024-03-02T02:45:53.490Z,100.00
2024-03-02T02:48:21.867Z,100.00
2024-03-02T02:50:50.353Z,100.00
2024-03-02T02:53:18.626Z,99.99
2024-03-02T02:55:46.743Z,99.95
2024-03-02T02:58:15.973Z,99.55
2024-03-02T03:00:44.700Z,99.98
2024-03-02T03:03:12.977Z,99.91
2024-03-02T03:05:41.241Z,100.00
2024-03-02T03:08:09.373Z,100.00
2024-03-02T03:10:38.047Z,100.00
2024-03-02T03:13:09.419Z,100.00
2024-03-02T03:15:38.001Z,100.00
2024-03-02T03:18:06.284Z,100.00
2024-03-02T03:20:35.233Z,100.00
2024-03-02T03:23:05.349Z,100.00
2024-03-02T03:25:33.412Z,100.00
2024-03-02T03:28:02.955Z,100.00
2024-03-02T03:30:31.063Z,100.00
2024-03-02T03:32:59.175Z,100.00
2024-03-02T03:35:27.362Z,100.00
2024-03-02T03:37:55.591Z,100.00
2024-03-02T03:40:24.534Z,100.00
2024-03-02T03:42:53.148Z,100.00
2024-03-02T03:45:22.303Z,100.00
2024-03-02T03:47:50.778Z,100.00
2024-03-02T03:50:19.139Z,100.00
2024-03-02T03:52:47.298Z,100.00
2024-03-02T03:55:16.287Z,100.00
2024-03-02T03:57:44.372Z,100.00
2024-03-02T04:00:13.342Z,100.00
2024-03-02T04:02:41.934Z,100.00
2024-03-02T04:05:12.618Z,100.00
2024-03-02T04:07:42.023Z,100.00
2024-03-02T04:10:11.870Z,100.00
2024-03-02T04:12:40.344Z,100.00
2024-03-02T04:15:08.869Z,100.00
2024-03-02T04:17:37.813Z,100.00
2024-03-02T04:20:07.009Z,100.00
2024-03-02T04:22:36.629Z,100.00
2024-03-02T04:25:06.112Z,100.00
2024-03-02T04:27:34.946Z,100.00
2024-03-02T04:30:04.904Z,100.00
2024-03-02T04:32:33.103Z,100.00
2024-03-02T04:35:01.263Z,100.00
2024-03-02T04:37:29.429Z,100.00
2024-03-02T04:39:57.622Z,100.00
2024-03-02T04:42:25.956Z,100.00
2024-03-02T04:44:54.263Z,100.00
2024-03-02T04:47:22.434Z,100.00
2024-03-02T04:49:50.604Z,100.00
2024-03-02T04:52:18.897Z,100.00
2024-03-02T04:55:05.607Z,100.00
2024-03-02T04:57:33.680Z,100.00
2024-03-02T05:00:02.190Z,100.00
2024-03-02T05:02:30.343Z,100.00
2024-03-02T05:04:58.578Z,100.00
2024-03-02T05:07:26.767Z,100.00
2024-03-02T05:09:55.228Z,100.00
2024-03-02T05:12:42.278Z,100.00
2024-03-02T05:15:12.002Z,100.00
2024-03-02T05:17:41.892Z,100.00
2024-03-02T05:20:11.025Z,100.00
2024-03-02T05:22:40.858Z,100.00
2024-03-02T05:25:13.101Z,100.00
2024-03-02T05:27:41.384Z,100.00
2024-03-02T05:30:10.464Z,100.00
2024-03-02T05:32:38.880Z,100.00
2024-03-02T05:35:07.505Z,100.00
2024-03-02T05:37:35.806Z,100.00
2024-03-02T05:40:04.483Z,100.00
2024-03-02T05:42:32.736Z,100.00
2024-03-02T05:45:01.032Z,100.00
2024-03-02T05:47:29.549Z,100.00
2024-03-02T05:49:57.892Z,100.00
2024-03-02T05:52:26.846Z,100.00
2024-03-02T05:54:55.164Z,100.00
2024-03-02T05:57:49.068Z,100.00
2024-03-02T06:00:18.687Z,100.00
2024-03-02T06:02:47.413Z,100.00
2024-03-02T06:05:17.997Z,100.00
2024-03-02T06:07:46.790Z,100.00
2024-03-02T06:10:15.844Z,100.00
2024-03-02T06:12:44.689Z,100.00
2024-03-02T06:15:13.005Z,100.00
2024-03-02T06:17:41.295Z,100.00
2024-03-02T06:20:10.585Z,100.00
2024-03-02T06:22:39.710Z,100.00
2024-03-02T06:25:08.535Z,100.00
2024-03-02T06:27:37.061Z,100.00
2024-03-02T06:30:05.979Z,100.00
2024-03-02T06:32:34.464Z,100.00
2024-03-02T06:35:06.149Z,100.00
2024-03-02T06:37:34.329Z,100.00
2024-03-02T06:40:02.750Z,100.00
2024-03-02T06:42:34.928Z,100.00
2024-03-02T06:45:04.565Z,100.00
2024-03-02T06:47:33.052Z,100.00
2024-03-02T06:50:01.814Z,100.00
2024-03-02T06:52:30.060Z,100.00
2024-03-02T06:55:00.212Z,100.00
2024-03-02T06:57:28.578Z,100.00
2024-03-02T06:59:59.939Z,100.00
2024-03-02T07:02:28.530Z,100.00
2024-03-02T07:04:57.255Z,100.00
2024-03-02T07:07:25.460Z,100.00
2024-03-02T07:09:54.113Z,100.00
2024-03-02T07:12:22.463Z,100.00
2024-03-02T07:15:17.504Z,100.00
2024-03-02T07:17:45.742Z,100.00
2024-03-02T07:20:14.512Z,99.13
2024-03-02T07:22:44.926Z,96.12
2024-03-02T07:27:45.437Z,94.90
2024-03-02T07:30:20.098Z,95.16
2024-03-02T07:32:52.011Z,95.51
2024-03-02T07:35:20.395Z,95.98
2024-03-02T07:37:48.983Z,95.86
2024-03-02T07:40:17.293Z,95.39
2024-03-02T07:42:46.818Z,94.77
2024-03-02T07:45:15.310Z,93.87
2024-03-02T07:47:43.564Z,94.12
2024-03-02T07:50:11.912Z,93.21
2024-03-02T07:52:40.240Z,92.77
2024-03-02T07:55:08.619Z,89.50
2024-03-02T07:57:37.146Z,88.64
2024-03-02T08:00:07.292Z,87.24
2024-03-02T08:02:41.585Z,85.85
2024-03-02T08:05:10.009Z,86.32
2024-03-02T08:07:38.520Z,84.11
2024-03-02T08:10:08.294Z,82.86
2024-03-02T08:12:36.732Z,82.66
2024-03-02T08:15:05.434Z,81.79
2024-03-02T08:17:35.976Z,80.56
2024-03-02T08:20:08.108Z,78.59
2024-03-02T08:22:38.293Z,76.88
2024-03-02T08:25:09.729Z,76.22
2024-03-02T08:27:41.215Z,74.73
2024-03-02T08:30:12.044Z,73.40
2024-03-02T08:32:41.872Z,71.55
2024-03-02T08:35:10.416Z,70.84
2024-03-02T08:37:41.176Z,70.84
2024-03-02T08:40:10.100Z,69.48
2024-03-02T08:42:38.405Z,69.08
2024-03-02T08:45:08.131Z,68.61
2024-03-02T08:47:36.602Z,67.92
2024-03-02T08:50:06.440Z,68.14
2024-03-02T08:52:37.264Z,65.63
2024-03-02T08:55:06.268Z,65.55
2024-03-02T08:57:35.154Z,64.62
2024-03-02T09:00:04.096Z,64.07
2024-03-02T09:02:33.056Z,62.80
2024-03-02T09:05:02.157Z,60.85
2024-03-02T09:07:30.290Z,58.44
2024-03-02T09:09:58.708Z,58.76
2024-03-02T09:12:27.580Z,57.73
2024-03-02T09:14:55.761Z,56.93
2024-03-02T09:17:24.369Z,56.82
2024-03-02T09:19:54.133Z,56.03
2024-03-02T09:22:24.596Z,55.44
2024-03-02T09:24:52.997Z,55.08
2024-03-02T09:27:21.530Z,53.86
2024-03-02T09:29:52.943Z,52.82
2024-03-02T09:32:21.251Z,51.06
2024-03-02T09:34:50.641Z,49.96
2024-03-02T09:37:18.912Z,49.70
2024-03-02T09:39:47.480Z,48.59
2024-03-02T09:42:15.866Z,47.96
2024-03-02T09:44:44.657Z,48.38
2024-03-02T09:47:12.903Z,49.07
2024-03-02T09:49:42.103Z,48.86
2024-03-02T09:52:12.058Z,48.51
2024-03-02T09:54:41.946Z,47.60
2024-03-02T09:57:10.974Z,47.28
2024-03-02T09:59:39.348Z,47.21
2024-03-02T10:02:08.792Z,46.98
2024-03-02T10:04:37.240Z,47.14
2024-03-02T10:07:16.237Z,46.45
2024-03-02T10:09:50.353Z,46.54
2024-03-02T10:12:20.109Z,45.58
2024-03-02T10:14:50.221Z,45.77
2024-03-02T10:17:19.387Z,45.89
2024-03-02T10:19:47.689Z,46.24
2024-03-02T10:22:16.868Z,46.39
2024-03-02T10:24:47.422Z,45.60
2024-03-02T10:27:24.855Z,45.56
2024-03-02T10:29:53.476Z,46.23
2024-03-02T10:32:24.165Z,46.38
2024-03-02T10:34:53.317Z,46.42
2024-03-02T10:37:23.251Z,46.28
2024-03-02T10:39:54.040Z,46.06
2024-03-02T10:42:24.059Z,45.76
2024-03-02T10:44:54.866Z,45.78
2024-03-02T10:47:24.767Z,45.56
2024-03-02T10:49:56.599Z,45.48
2024-03-02T10:52:25.859Z,45.70
2024-03-02T10:54:54.361Z,45.86
2024-03-02T10:57:34.036Z,45.91
2024-03-02T11:00:04.845Z,45.47
2024-03-02T11:02:36.957Z,45.43
2024-03-02T11:05:28.366Z,45.86
2024-03-02T11:08:05.949Z,46.29
2024-03-02T11:10:53.747Z,46.72
2024-03-02T11:13:32.367Z,46.82
2024-03-02T11:16:11.594Z,46.73
2024-03-02T11:18:41.655Z,46.72
2024-03-02T11:21:11.070Z,47.19
2024-03-02T11:23:39.539Z,47.05
2024-03-02T11:26:20.210Z,46.71
2024-03-02T11:28:53.657Z,46.81
2024-03-02T11:31:22.155Z,46.13
2024-03-02T11:33:51.093Z,45.19
2024-03-02T11:36:22.228Z,44.64
2024-03-02T11:38:55.054Z,44.20
2024-03-02T11:41:23.432Z,43.98
2024-03-02T11:43:53.525Z,43.27
2024-03-02T11:46:23.544Z,42.78
2024-03-02T11:48:51.752Z,42.31
2024-03-02T11:51:20.114Z,42.44
2024-03-02T11:53:51.420Z,42.52
2024-03-02T11:56:20.964Z,42.39
2024-03-02T11:58:50.504Z,42.35
2024-03-02T12:01:24.803Z,42.22
2024-03-02T12:03:56.838Z,41.96
2024-03-02T12:06:27.781Z,41.96
2024-03-02T12:08:56.600Z,42.08
2024-03-02T12:11:27.759Z,42.20
2024-03-02T12:13:56.437Z,41.50
2024-03-02T12:16:26.405Z,41.32
2024-03-02T12:18:56.055Z,41.75
2024-03-02T12:21:24.877Z,41.70
2024-03-02T12:23:53.789Z,41.92
2024-03-02T12:26:23.558Z,42.14
2024-03-02T12:28:55.160Z,41.41
2024-03-02T12:31:23.766Z,41.16
2024-03-02T12:33:52.395Z,41.15
2024-03-02T12:36:21.569Z,40.91
2024-03-02T12:38:50.249Z,40.97
2024-03-02T12:41:18.643Z,40.10
2024-03-02T12:43:46.918Z,40.13
2024-03-02T12:46:15.810Z,39.72
2024-03-02T12:48:46.613Z,39.65
2024-03-02T12:51:16.558Z,39.83
2024-03-02T12:53:45.466Z,39.97
2024-03-02T12:56:17.628Z,40.36
2024-03-02T12:58:45.943Z,40.76
2024-03-02T13:01:16.729Z,41.34
2024-03-02T13:03:45.187Z,42.11
2024-03-02T13:06:13.777Z,42.63
2024-03-02T13:08:42.527Z,42.80
2024-03-02T13:11:11.594Z,43.02
2024-03-02T13:13:41.735Z,43.34
2024-03-02T13:16:13.665Z,43.54
2024-03-02T13:18:42.620Z,43.57
2024-03-02T13:21:11.704Z,43.41
2024-03-02T13:23:40.232Z,43.72
2024-03-02T13:26:08.899Z,43.86
2024-03-02T13:28:37.252Z,44.22
2024-03-02T13:31:05.939Z,44.57
2024-03-02T13:33:34.589Z,44.54
2024-03-02T13:36:04.591Z,44.34
2024-03-02T13:38:32.808Z,44.40
2024-03-02T13:41:02.402Z,44.78
2024-03-02T13:43:33.373Z,44.93
2024-03-02T13:46:03.689Z,44.87
2024-03-02T13:48:32.615Z,45.17
2024-03-02T13:51:00.808Z,45.29
2024-03-02T13:53:29.732Z,45.66
2024-03-02T13:55:59.319Z,46.04
2024-03-02T13:58:28.290Z,46.29
2024-03-02T14:00:57.950Z,46.32
2024-03-02T14:03:31.324Z,46.50
2024-03-02T14:06:00.158Z,47.03
2024-03-02T14:08:28.498Z,47.33
2024-03-02T14:10:59.486Z,47.57
2024-03-02T14:13:28.667Z,47.26
2024-03-02T14:15:56.988Z,47.72
2024-03-02T14:18:28.176Z,47.81
2024-03-02T14:20:59.784Z,47.75
2024-03-02T14:23:30.974Z,48.07
2024-03-02T14:26:00.427Z,48.26
2024-03-02T14:28:43.967Z,48.43
2024-03-02T14:31:19.221Z,48.78
2024-03-02T14:33:48.752Z,49.02
2024-03-02T14:36:18.278Z,48.86
2024-03-02T14:38:47.066Z,49.31
2024-03-02T14:41:15.559Z,49.42
2024-03-02T14:43:44.058Z,49.55
2024-03-02T14:46:15.588Z,49.89
2024-03-02T14:48:45.577Z,50.25
2024-03-02T14:51:15.742Z,50.17
2024-03-02T14:53:44.010Z,50.32
2024-03-02T14:56:15.061Z,50.53
2024-03-02T14:58:43.769Z,50.71
2024-03-02T15:01:13.573Z,51.36
2024-03-02T15:03:44.278Z,51.71
2024-03-02T15:06:12.630Z,52.19
2024-03-02T15:08:42.770Z,52.54
2024-03-02T15:11:12.057Z,53.05
2024-03-02T15:13:40.720Z,53.65
2024-03-02T15:16:09.771Z,54.09
2024-03-02T15:18:38.832Z,55.57
2024-03-02T15:21:07.283Z,56.12
2024-03-02T15:23:36.042Z,56.66
2024-03-02T15:26:04.857Z,57.39
2024-03-02T15:28:34.339Z,57.45
2024-03-02T15:31:02.486Z,57.65
2024-03-02T15:33:33.140Z,59.55
2024-03-02T15:36:02.976Z,59.78
2024-03-02T15:38:34.571Z,59.88
2024-03-02T15:41:06.082Z,60.05
2024-03-02T15:43:37.237Z,60.49
2024-03-02T15:46:05.613Z,60.64
2024-03-02T15:48:34.205Z,60.49
2024-03-02T15:51:06.766Z,61.38
2024-03-02T15:53:37.285Z,61.86
2024-03-02T15:56:09.485Z,61.74
2024-03-02T15:58:39.813Z,62.24
2024-03-02T16:01:10.696Z,62.83
2024-03-02T16:03:39.437Z,63.08
2024-03-02T16:06:07.898Z,63.68
2024-03-02T16:08:36.322Z,63.91
2024-03-02T16:11:06.118Z,64.84
2024-03-02T16:13:34.411Z,65.76
2024-03-02T16:16:03.214Z,66.45
2024-03-02T16:18:31.885Z,67.15
2024-03-02T16:21:00.831Z,67.09
2024-03-02T16:23:29.280Z,66.87
2024-03-02T16:25:58.161Z,68.15
2024-03-02T16:28:26.842Z,68.82
2024-03-02T16:30:55.700Z,68.77
2024-03-02T16:33:25.395Z,69.85
2024-03-02T16:35:53.835Z,70.47
2024-03-02T16:38:23.336Z,69.70
2024-03-02T16:40:52.213Z,69.11
2024-03-02T16:43:21.258Z,69.40
2024-03-02T16:45:49.697Z,69.43
2024-03-02T16:48:18.883Z,69.97
2024-03-02T16:50:47.493Z,70.59
2024-03-02T16:53:17.100Z,71.89
2024-03-02T16:55:45.324Z,72.15
2024-03-02T16:58:13.715Z,72.34
2024-03-02T17:00:42.299Z,71.87
2024-03-02T17:03:10.484Z,72.81
2024-03-02T17:05:40.149Z,73.15
2024-03-02T17:08:08.330Z,74.85
2024-03-02T17:10:38.636Z,76.69
2024-03-02T17:13:07.089Z,76.45
2024-03-02T17:15:35.782Z,76.04
2024-03-02T17:18:04.509Z,74.93
2024-03-02T17:20:32.746Z,74.53
2024-03-02T17:23:01.240Z,74.73
2024-03-02T17:25:29.648Z,75.67
2024-03-02T17:28:29.583Z,76.15
2024-03-02T17:30:58.975Z,75.84
2024-03-02T17:33:27.491Z,76.52
2024-03-02T17:35:58.767Z,79.98
2024-03-02T17:38:27.362Z,80.21
2024-03-02T17:40:55.750Z,81.56
2024-03-02T17:43:25.559Z,80.13
2024-03-02T17:45:57.583Z,80.63
2024-03-02T17:48:26.622Z,81.06
2024-03-02T17:50:55.322Z,81.98
2024-03-02T17:53:23.852Z,82.39
2024-03-02T17:55:53.997Z,82.03
2024-03-02T17:58:23.316Z,83.26
2024-03-02T18:00:53.470Z,83.36
2024-03-02T18:03:23.073Z,82.49
2024-03-02T18:05:51.434Z,82.23
2024-03-02T18:08:20.398Z,82.84
2024-03-02T18:10:49.087Z,84.73
2024-03-02T18:13:17.617Z,84.99
2024-03-02T18:15:51.224Z,85.67
2024-03-02T18:18:20.297Z,85.64
2024-03-02T18:20:50.129Z,87.03
2024-03-02T18:23:18.416Z,87.68
2024-03-02T18:25:49.913Z,88.71
2024-03-02T18:28:18.259Z,89.81
2024-03-02T18:30:46.654Z,91.10
2024-03-02T18:33:17.546Z,91.45
2024-03-02T18:35:45.722Z,92.14
2024-03-02T18:38:13.919Z,93.44
2024-03-02T18:40:55.951Z,94.78
2024-03-02T18:43:26.649Z,94.72
2024-03-02T18:45:56.784Z,95.43
2024-03-02T18:48:26.996Z,96.57
2024-03-02T18:50:55.574Z,97.25
2024-03-02T18:53:24.174Z,97.83
2024-03-02T18:55:52.704Z,98.31
2024-03-02T18:58:21.376Z,98.11
2024-03-02T19:00:51.750Z,98.27
2024-03-02T19:03:20.209Z,99.13
2024-03-02T19:05:49.093Z,99.76
2024-03-02T19:08:20.715Z,99.77
2024-03-02T19:10:50.254Z,99.87
2024-03-02T19:13:18.527Z,100.00
2024-03-02T19:15:49.677Z,100.00
2024-03-02T19:18:18.918Z,100.00
2024-03-02T19:20:47.596Z,100.00
2024-03-02T19:23:21.865Z,100.00
2024-03-02T19:26:00.109Z,100.00
2024-03-02T19:28:28.684Z,100.00
2024-03-02T19:30:57.089Z,100.00
2024-03-02T19:33:26.663Z,100.00
2024-03-02T19:36:01.013Z,100.00
2024-03-02T19:38:29.537Z,100.00
2024-03-02T19:40:58.604Z,100.00
2024-03-02T19:43:26.767Z,100.00
2024-03-02T19:45:55.341Z,100.00
2024-03-02T19:48:23.933Z,100.00
2024-03-02T19:50:54.485Z,100.00
2024-03-02T19:53:22.831Z,100.00
2024-03-02T19:55:51.019Z,100.00
2024-03-02T19:58:19.662Z,100.00
2024-03-02T20:00:48.247Z,100.00
2024-03-02T20:03:16.450Z,100.00
2024-03-02T20:05:45.515Z,100.00
2024-03-02T20:08:14.403Z,100.00
2024-03-02T20:10:44.579Z,100.00
2024-03-02T20:13:17.163Z,100.00
2024-03-02T20:15:45.622Z,100.00
2024-03-02T20:18:14.327Z,100.00
2024-03-02T20:20:42.536Z,100.00
2024-03-02T20:23:11.808Z,100.00
2024-03-02T20:25:40.339Z,100.00
2024-03-02T20:28:08.706Z,100.00
2024-03-02T20:30:37.240Z,100.00
2024-03-02T20:33:06.480Z,100.00
2024-03-02T20:35:37.280Z,100.00
2024-03-02T20:38:05.839Z,100.00
2024-03-02T20:40:34.666Z,100.00
2024-03-02T20:43:04.515Z,100.00
2024-03-02T20:45:32.919Z,100.00
2024-03-02T20:48:01.049Z,100.00
2024-03-02T20:50:29.774Z,100.00
2024-03-02T20:53:03.100Z,100.00
2024-03-02T20:55:31.409Z,100.00
2024-03-02T20:57:59.711Z,100.00
2024-03-02T21:00:27.901Z,100.00
2024-03-02T21:02:56.274Z,100.00
2024-03-02T21:05:25.156Z,100.00
2024-03-02T21:07:53.429Z,100.00
2024-03-02T21:10:22.649Z,100.00
2024-03-02T21:12:50.940Z,100.00
2024-03-02T21:15:19.624Z,100.00
2024-03-02T21:17:47.876Z,100.00
2024-03-02T21:20:16.138Z,100.00
2024-03-02T21:22:48.570Z,100.00
2024-03-02T21:25:21.290Z,100.00
2024-03-02T21:27:50.137Z,100.00
2024-03-02T21:30:19.652Z,100.00
2024-03-02T21:32:49.866Z,100.00
2024-03-02T21:35:20.311Z,100.00
2024-03-02T21:37:51.802Z,100.00
2024-03-02T21:40:20.582Z,100.00
2024-03-02T21:42:49.816Z,100.00
2024-03-02T21:45:18.721Z,100.00
2024-03-02T21:47:48.023Z,100.00
2024-03-02T21:50:17.761Z,100.00
2024-03-02T21:52:47.359Z,100.00
2024-03-02T21:55:16.971Z,100.00
2024-03-02T21:57:45.811Z,100.00
2024-03-02T22:00:15.309Z,100.00
2024-03-02T22:02:43.621Z,100.00
2024-03-02T22:05:12.073Z,100.00
2024-03-02T22:07:40.584Z,100.00
2024-03-02T22:10:09.316Z,100.00
2024-03-02T22:12:37.748Z,100.00
2024-03-02T22:15:06.171Z,100.00
2024-03-02T22:17:35.879Z,100.00
2024-03-02T22:20:05.133Z,100.00
2024-03-02T22:22:33.400Z,100.00
2024-03-02T22:25:03.124Z,100.00
2024-03-02T22:27:32.038Z,100.00
2024-03-02T22:30:00.320Z,100.00
2024-03-02T22:32:29.206Z,100.00
2024-03-02T22:34:57.548Z,100.00
2024-03-02T22:37:25.756Z,100.00
2024-03-02T22:39:54.581Z,100.00
2024-03-02T22:42:23.826Z,100.00
2024-03-02T22:44:53.400Z,100.00
2024-03-02T22:47:21.584Z,100.00
2024-03-02T22:49:50.581Z,100.00
2024-03-02T22:52:18.860Z,100.00
2024-03-02T22:54:47.609Z,100.00
2024-03-02T22:57:19.022Z,100.00
2024-03-02T22:59:53.401Z,100.00
2024-03-02T23:02:21.720Z,100.00
2024-03-02T23:04:49.966Z,100.00
2024-03-02T23:07:20.932Z,100.00
2024-03-02T23:09:50.589Z,100.00
2024-03-02T23:12:19.449Z,100.00
2024-03-02T23:14:47.734Z,100.00
2024-03-02T23:17:16.283Z,100.00
2024-03-02T23:19:44.455Z,100.00
2024-03-02T23:22:14.386Z,100.00
2024-03-02T23:24:42.929Z,100.00
2024-03-02T23:27:10.983Z,100.00
2024-03-02T23:29:41.390Z,100.00
2024-03-02T23:32:09.520Z,100.00
2024-03-02T23:34:37.701Z,100.00
2024-03-02T23:37:06.356Z,100.00
2024-03-02T23:39:55.072Z,100.00
2024-03-02T23:42:23.283Z,100.00
2024-03-02T23:44:51.418Z,100.00
2024-03-02T23:47:19.589Z,100.00
2024-03-02T23:49:48.363Z,100.00
2024-03-02T23:52:16.738Z,100.00
2024-03-02T23:54:45.083Z,100.00
2024-03-02T23:57:13.845Z,100.00
2024-03-02T23:59:42.528Z,100.00
